sensor_id;sensor_type;location;lat;lon;timestamp;pressure;altitude;pressure_sealevel;temperature;humidity
6395;BME280;3230;42.588;23.358;2023-05-12T00:02:09;91250.41;;;6.19;100.00
6395;BME280;3230;42.588;23.358;2023-05-12T00:04:34;91253.59;;;6.26;100.00
6395;BME280;3230;42.588;23.358;2023-05-12T00:07:00;91255.06;;;6.39;100.00
6395;BME280;3230;42.588;23.358;2023-05-12T00:09:26;91251.78;;;6.49;100.00
6395;BME280;3230;42.588;23.358;2023-05-12T00:11:52;91249.59;;;6.40;100.00
6395;BME280;3230;42.588;23.358;2023-05-12T00:14:18;91247.66;;;6.31;100.00
6395;BME280;3230;42.588;23.358;2023-05-12T00:16:44;91247.19;;;6.34;100.00
6395;BME280;3230;42.588;23.358;2023-05-12T00:19:15;91247.19;;;6.34;100.00
6395;BME280;3230;42.588;23.358;2023-05-12T00:21:40;91249.44;;;6.25;100.00
6395;BME280;3230;42.588;23.358;2023-05-12T00:24:07;91250.41;;;6.19;100.00
6395;BME280;3230;42.588;23.358;2023-05-12T00:26:33;91239.06;;;6.08;100.00
6395;BME280;3230;42.588;23.358;2023-05-12T00:28:58;91241.72;;;6.13;100.00
6395;BME280;3230;42.588;23.358;2023-05-12T00:31:23;91247.09;;;6.06;100.00
6395;BME280;3230;42.588;23.358;2023-05-12T00:33:49;91238.75;;;6.04;100.00
6395;BME280;3230;42.588;23.358;2023-05-12T00:36:14;91243.16;;;6.04;100.00
6395;BME280;3230;42.588;23.358;2023-05-12T00:38:40;91237.09;;;5.98;100.00
6395;BME280;3230;42.588;23.358;2023-05-12T00:41:05;91246.81;;;6.03;100.00
6395;BME280;3230;42.588;23.358;2023-05-12T00:43:31;91247.66;;;6.08;100.00
6395;BME280;3230;42.588;23.358;2023-05-12T00:45:58;91249.78;;;6.12;100.00
6395;BME280;3230;42.588;23.358;2023-05-12T00:48:24;91238.53;;;5.89;100.00
6395;BME280;3230;42.588;23.358;2023-05-12T00:50:50;91236.09;;;5.82;100.00
6395;BME280;3230;42.588;23.358;2023-05-12T00:53:16;91244.94;;;5.81;100.00
6395;BME280;3230;42.588;23.358;2023-05-12T00:55:42;91252.47;;;5.83;100.00
6395;BME280;3230;42.588;23.358;2023-05-12T00:58:07;91251.22;;;5.85;100.00
6395;BME280;3230;42.588;23.358;2023-05-12T01:00:33;91255.78;;;5.78;100.00
6395;BME280;3230;42.588;23.358;2023-05-12T01:02:58;91253.28;;;5.66;100.00
6395;BME280;3230;42.588;23.358;2023-05-12T01:05:32;91251.72;;;5.65;100.00
6395;BME280;3230;42.588;23.358;2023-05-12T01:08:01;91249.66;;;5.67;100.00
6395;BME280;3230;42.588;23.358;2023-05-12T01:10:27;91248.06;;;5.66;100.00
6395;BME280;3230;42.588;23.358;2023-05-12T01:12:53;91252.25;;;5.67;100.00
6395;BME280;3230;42.588;23.358;2023-05-12T01:15:18;91254.06;;;5.67;100.00
6395;BME280;3230;42.588;23.358;2023-05-12T01:17:48;91252.75;;;5.64;100.00
6395;BME280;3230;42.588;23.358;2023-05-12T01:20:17;91256.44;;;5.68;100.00
6395;BME280;3230;42.588;23.358;2023-05-12T01:22:44;91250.78;;;5.54;100.00
6395;BME280;3230;42.588;23.358;2023-05-12T01:25:11;91254.31;;;5.48;100.00
6395;BME280;3230;42.588;23.358;2023-05-12T01:27:39;91250.91;;;5.48;100.00
6395;BME280;3230;42.588;23.358;2023-05-12T01:30:06;91254.31;;;5.48;100.00
6395;BME280;3230;42.588;23.358;2023-05-12T01:32:32;91250.47;;;5.34;100.00
6395;BME280;3230;42.588;23.358;2023-05-12T01:34:57;91246.28;;;5.50;100.00
6395;BME280;3230;42.588;23.358;2023-05-12T01:37:23;91251.63;;;5.43;100.00
6395;BME280;3230;42.588;23.358;2023-05-12T01:39:52;91252.81;;;5.52;100.00
6395;BME280;3230;42.588;23.358;2023-05-12T01:42:17;91251.09;;;5.41;100.00
6395;BME280;3230;42.588;23.358;2023-05-12T01:44:43;91246.53;;;5.48;100.00
6395;BME280;3230;42.588;23.358;2023-05-12T01:47:08;91242.28;;;5.42;100.00
6395;BME280;3230;42.588;23.358;2023-05-12T01:49:36;91247.53;;;5.30;100.00
6395;BME280;3230;42.588;23.358;2023-05-12T01:52:01;91243.75;;;5.38;100.00
6395;BME280;3230;42.588;23.358;2023-05-12T01:54:27;91242.09;;;5.32;100.00
6395;BME280;3230;42.588;23.358;2023-05-12T01:56:52;91250.38;;;5.28;100.00
6395;BME280;3230;42.588;23.358;2023-05-12T01:59:18;91244.31;;;5.23;100.00
6395;BME280;3230;42.588;23.358;2023-05-12T02:01:43;91240.38;;;5.37;100.00
6395;BME280;3230;42.588;23.358;2023-05-12T02:04:08;91242.81;;;5.27;100.00
6395;BME280;3230;42.588;23.358;2023-05-12T02:06:34;91243.44;;;5.34;100.00
6395;BME280;3230;42.588;23.358;2023-05-12T02:09:00;91244.25;;;5.35;100.00
6395;BME280;3230;42.588;23.358;2023-05-12T02:11:25;91235.00;;;5.27;100.00
6395;BME280;3230;42.588;23.358;2023-05-12T02:13:50;91246.75;;;5.29;100.00
6395;BME280;3230;42.588;23.358;2023-05-12T02:16:16;91243.63;;;5.27;100.00
6395;BME280;3230;42.588;23.358;2023-05-12T02:18:41;91238.81;;;5.36;100.00
6395;BME280;3230;42.588;23.358;2023-05-12T02:21:07;91243.81;;;5.26;100.00
6395;BME280;3230;42.588;23.358;2023-05-12T02:23:32;91239.25;;;5.33;100.00
6395;BME280;3230;42.588;23.358;2023-05-12T02:25:57;91242.28;;;5.25;100.00
6395;BME280;3230;42.588;23.358;2023-05-12T02:28:23;91238.50;;;5.33;100.00
6395;BME280;3230;42.588;23.358;2023-05-12T02:30:49;91239.50;;;5.32;100.00
6395;BME280;3230;42.588;23.358;2023-05-12T02:33:20;91236.34;;;5.29;100.00
6395;BME280;3230;42.588;23.358;2023-05-12T02:35:45;91232.78;;;5.19;100.00
6395;BME280;3230;42.588;23.358;2023-05-12T02:38:11;91238.63;;;5.26;100.00
6395;BME280;3230;42.588;23.358;2023-05-12T02:40:37;91237.28;;;5.23;100.00
6395;BME280;3230;42.588;23.358;2023-05-12T02:43:02;91227.78;;;5.29;100.00
6395;BME280;3230;42.588;23.358;2023-05-12T02:45:28;91234.47;;;5.25;100.00
6395;BME280;3230;42.588;23.358;2023-05-12T02:47:53;91232.72;;;5.31;100.00
6395;BME280;3230;42.588;23.358;2023-05-12T02:50:19;91228.88;;;5.33;100.00
6395;BME280;3230;42.588;23.358;2023-05-12T02:52:48;91233.06;;;5.34;100.00
6395;BME280;3230;42.588;23.358;2023-05-12T02:55:14;91225.81;;;5.36;100.00
6395;BME280;3230;42.588;23.358;2023-05-12T02:57:39;91222.25;;;5.25;100.00
6395;BME280;3230;42.588;23.358;2023-05-12T03:00:06;91224.88;;;5.25;100.00
6395;BME280;3230;42.588;23.358;2023-05-12T03:02:35;91221.94;;;5.22;100.00
6395;BME280;3230;42.588;23.358;2023-05-12T03:05:01;91225.75;;;5.31;100.00
6395;BME280;3230;42.588;23.358;2023-05-12T03:07:27;91231.09;;;5.41;100.00
6395;BME280;3230;42.588;23.358;2023-05-12T03:09:52;91227.78;;;5.29;100.00
6395;BME280;3230;42.588;23.358;2023-05-12T03:12:18;91232.09;;;5.40;100.00
6395;BME280;3230;42.588;23.358;2023-05-12T03:14:43;91223.28;;;5.41;100.00
6395;BME280;3230;42.588;23.358;2023-05-12T03:17:09;91221.19;;;5.38;100.00
6395;BME280;3230;42.588;23.358;2023-05-12T03:19:34;91229.34;;;5.47;100.00
6395;BME280;3230;42.588;23.358;2023-05-12T03:22:00;91231.56;;;5.38;100.00
6395;BME280;3230;42.588;23.358;2023-05-12T03:24:26;91227.28;;;5.49;100.00
6395;BME280;3230;42.588;23.358;2023-05-12T03:26:51;91238.88;;;5.41;100.00
6395;BME280;3230;42.588;23.358;2023-05-12T03:29:17;91237.84;;;5.42;100.00
6395;BME280;3230;42.588;23.358;2023-05-12T03:31:42;91237.84;;;5.42;100.00
6395;BME280;3230;42.588;23.358;2023-05-12T03:34:08;91244.38;;;5.45;100.00
6395;BME280;3230;42.588;23.358;2023-05-12T03:36:33;91246.34;;;5.55;100.00
6395;BME280;3230;42.588;23.358;2023-05-12T03:38:58;91249.28;;;5.41;100.00
6395;BME280;3230;42.588;23.358;2023-05-12T03:41:24;91250.84;;;5.42;100.00
6395;BME280;3230;42.588;23.358;2023-05-12T03:43:49;91249.34;;;5.47;100.00
6395;BME280;3230;42.588;23.358;2023-05-12T03:46:15;91247.47;;;5.59;100.00
6395;BME280;3230;42.588;23.358;2023-05-12T03:48:40;91247.94;;;5.56;100.00
6395;BME280;3230;42.588;23.358;2023-05-12T03:51:06;91248.41;;;5.53;100.00
6395;BME280;3230;42.588;23.358;2023-05-12T03:53:31;91250.53;;;5.56;100.00
6395;BME280;3230;42.588;23.358;2023-05-12T03:55:57;91250.06;;;5.59;100.00
6395;BME280;3230;42.588;23.358;2023-05-12T03:58:22;91248.09;;;5.49;100.00
6395;BME280;3230;42.588;23.358;2023-05-12T04:00:48;91249.50;;;5.57;100.00
6395;BME280;3230;42.588;23.358;2023-05-12T04:03:15;91252.13;;;5.57;100.00
6395;BME280;3230;42.588;23.358;2023-05-12T04:05:40;91253.59;;;5.53;100.00
6395;BME280;3230;42.588;23.358;2023-05-12T04:08:07;91256.38;;;5.63;100.00
6395;BME280;3230;42.588;23.358;2023-05-12T04:10:42;91263.06;;;5.59;100.00
6395;BME280;3230;42.588;23.358;2023-05-12T04:13:07;91265.75;;;5.64;100.00
6395;BME280;3230;42.588;23.358;2023-05-12T04:15:34;91268.28;;;5.59;100.00
6395;BME280;3230;42.588;23.358;2023-05-12T04:18:00;91268.41;;;5.69;100.00
6395;BME280;3230;42.588;23.358;2023-05-12T04:20:26;91263.53;;;5.73;100.00
6395;BME280;3230;42.588;23.358;2023-05-12T04:22:51;91270.63;;;5.60;100.00
6395;BME280;3230;42.588;23.358;2023-05-12T04:25:17;91266.50;;;5.65;100.00
6395;BME280;3230;42.588;23.358;2023-05-12T04:27:42;91262.66;;;5.50;100.00
6395;BME280;3230;42.588;23.358;2023-05-12T04:30:08;91273.06;;;5.67;100.00
6395;BME280;3230;42.588;23.358;2023-05-12T04:32:33;91276.28;;;5.74;100.00
6395;BME280;3230;42.588;23.358;2023-05-12T04:34:59;91280.69;;;5.74;100.00
6395;BME280;3230;42.588;23.358;2023-05-12T04:37:25;91271.78;;;5.87;100.00
6395;BME280;3230;42.588;23.358;2023-05-12T04:39:51;91264.16;;;5.80;100.00
6395;BME280;3230;42.588;23.358;2023-05-12T04:42:20;91273.69;;;5.74;100.00
6395;BME280;3230;42.588;23.358;2023-05-12T04:44:45;91265.09;;;5.74;100.00
6395;BME280;3230;42.588;23.358;2023-05-12T04:47:11;91267.06;;;5.84;100.00
6395;BME280;3230;42.588;23.358;2023-05-12T04:49:37;91264.78;;;6.04;100.00
6395;BME280;3230;42.588;23.358;2023-05-12T04:52:03;91266.41;;;6.11;100.00
6395;BME280;3230;42.588;23.358;2023-05-12T04:54:30;91269.31;;;5.97;100.00
6395;BME280;3230;42.588;23.358;2023-05-12T04:56:56;91270.28;;;5.91;100.00
6395;BME280;3230;42.588;23.358;2023-05-12T04:59:22;91264.13;;;5.97;100.00
6395;BME280;3230;42.588;23.358;2023-05-12T05:01:47;91274.22;;;6.11;100.00
6395;BME280;3230;42.588;23.358;2023-05-12T05:04:13;91269.94;;;6.21;100.00
6395;BME280;3230;42.588;23.358;2023-05-12T05:06:38;91276.31;;;6.14;100.00
6395;BME280;3230;42.588;23.358;2023-05-12T05:09:03;91278.94;;;6.14;100.00
6395;BME280;3230;42.588;23.358;2023-05-12T05:11:29;91281.63;;;6.19;100.00
6395;BME280;3230;42.588;23.358;2023-05-12T05:13:54;91273.81;;;6.19;100.00
6395;BME280;3230;42.588;23.358;2023-05-12T05:16:20;91277.91;;;6.15;100.00
6395;BME280;3230;42.588;23.358;2023-05-12T05:18:46;91283.22;;;6.03;100.00
6395;BME280;3230;42.588;23.358;2023-05-12T05:21:12;91289.03;;;6.10;100.00
6395;BME280;3230;42.588;23.358;2023-05-12T05:23:41;91288.56;;;6.13;100.00
6395;BME280;3230;42.588;23.358;2023-05-12T05:26:07;91289.34;;;5.97;100.00
6395;BME280;3230;42.588;23.358;2023-05-12T05:28:33;91291.72;;;5.98;100.00
6395;BME280;3230;42.588;23.358;2023-05-12T05:30:58;91290.59;;;5.94;100.00
6395;BME280;3230;42.588;23.358;2023-05-12T05:33:23;91286.16;;;5.72;100.00
6395;BME280;3230;42.588;23.358;2023-05-12T05:35:49;91291.03;;;5.86;100.00
6395;BME280;3230;42.588;23.358;2023-05-12T05:38:14;91293.75;;;5.96;100.00
6395;BME280;3230;42.588;23.358;2023-05-12T05:40:40;91297.06;;;5.74;100.00
6395;BME280;3230;42.588;23.358;2023-05-12T05:43:05;91293.75;;;5.96;100.00
6395;BME280;3230;42.588;23.358;2023-05-12T05:45:31;91299.91;;;5.90;100.00
6395;BME280;3230;42.588;23.358;2023-05-12T05:47:56;91298.91;;;5.91;100.00
6395;BME280;3230;42.588;23.358;2023-05-12T05:50:22;91294.72;;;5.90;100.00
6395;BME280;3230;42.588;23.358;2023-05-12T05:52:48;91288.09;;;6.16;100.00
6395;BME280;3230;42.588;23.358;2023-05-12T05:55:13;91300.59;;;6.19;100.00
6395;BME280;3230;42.588;23.358;2023-05-12T05:57:39;91294.53;;;6.14;100.00
6395;BME280;3230;42.588;23.358;2023-05-12T06:00:05;91296.53;;;6.06;100.00
6395;BME280;3230;42.588;23.358;2023-05-12T06:02:34;91301.88;;;6.17;100.00
6395;BME280;3230;42.588;23.358;2023-05-12T06:04:59;91299.75;;;6.14;100.00
6395;BME280;3230;42.588;23.358;2023-05-12T06:07:25;91298.66;;;6.10;100.00
6395;BME280;3230;42.588;23.358;2023-05-12T06:09:53;91306.13;;;6.23;100.00
6395;BME280;3230;42.588;23.358;2023-05-12T06:12:19;91307.44;;;6.26;100.00
6395;BME280;3230;42.588;23.358;2023-05-12T06:14:45;91298.53;;;6.38;100.00
6395;BME280;3230;42.588;23.358;2023-05-12T06:17:10;91308.22;;;6.43;100.00
6395;BME280;3230;42.588;23.358;2023-05-12T06:19:35;91305.91;;;6.47;100.00
6395;BME280;3230;42.588;23.358;2023-05-12T06:22:01;91307.31;;;6.54;100.00
6395;BME280;3230;42.588;23.358;2023-05-12T06:24:27;91307.97;;;6.67;100.00
6395;BME280;3230;42.588;23.358;2023-05-12T06:26:52;91315.66;;;6.79;100.00
6395;BME280;3230;42.588;23.358;2023-05-12T06:29:17;91319.66;;;6.64;100.00
6395;BME280;3230;42.588;23.358;2023-05-12T06:31:44;91322.63;;;6.73;100.00
6395;BME280;3230;42.588;23.358;2023-05-12T06:34:09;91324.81;;;6.81;100.00
6395;BME280;3230;42.588;23.358;2023-05-12T06:36:34;91331.41;;;6.89;100.00
6395;BME280;3230;42.588;23.358;2023-05-12T06:39:00;91323.59;;;6.89;100.00
6395;BME280;3230;42.588;23.358;2023-05-12T06:41:26;91323.22;;;7.02;100.00
6395;BME280;3230;42.588;23.358;2023-05-12T06:43:51;91335.63;;;6.95;100.00
6395;BME280;3230;42.588;23.358;2023-05-12T06:46:17;91338.13;;;7.07;100.00
6395;BME280;3230;42.588;23.358;2023-05-12T06:48:43;91336.63;;;7.11;100.00
6395;BME280;3230;42.588;23.358;2023-05-12T06:51:08;91336.69;;;6.94;100.00
6395;BME280;3230;42.588;23.358;2023-05-12T06:53:33;91339.31;;;7.22;100.00
6395;BME280;3230;42.588;23.358;2023-05-12T06:56:03;91341.78;;;7.33;100.00
6395;BME280;3230;42.588;23.358;2023-05-12T06:58:29;91342.81;;;7.32;100.00
6395;BME280;3230;42.588;23.358;2023-05-12T07:00:54;91332.34;;;7.27;100.00
6395;BME280;3230;42.588;23.358;2023-05-12T07:03:19;91334.84;;;7.17;100.00
6395;BME280;3230;42.588;23.358;2023-05-12T07:05:45;91336.03;;;7.31;100.00
6395;BME280;3230;42.588;23.358;2023-05-12T07:08:11;91335.28;;;7.36;100.00
6395;BME280;3230;42.588;23.358;2023-05-12T07:10:36;91337.84;;;7.58;100.00
6395;BME280;3230;42.588;23.358;2023-05-12T07:13:02;91340.00;;;7.66;100.00
6395;BME280;3230;42.588;23.358;2023-05-12T07:15:28;91345.81;;;7.46;100.00
6395;BME280;3230;42.588;23.358;2023-05-12T07:17:54;91350.22;;;7.41;100.00
6395;BME280;3230;42.588;23.358;2023-05-12T07:20:20;91341.88;;;7.44;100.00
6395;BME280;3230;42.588;23.358;2023-05-12T07:22:46;91340.06;;;7.44;100.00
6395;BME280;3230;42.588;23.358;2023-05-12T07:25:12;91347.72;;;7.56;100.00
6395;BME280;3230;42.588;23.358;2023-05-12T07:27:37;91353.59;;;7.68;100.00
6395;BME280;3230;42.588;23.358;2023-05-12T07:30:06;91347.38;;;8.07;100.00
6395;BME280;3230;42.588;23.358;2023-05-12T07:32:33;91345.31;;;8.14;100.00
6395;BME280;3230;42.588;23.358;2023-05-12T07:35:00;91351.56;;;8.08;100.00
6395;BME280;3230;42.588;23.358;2023-05-12T07:37:26;91350.41;;;7.94;100.00
6395;BME280;3230;42.588;23.358;2023-05-12T07:39:51;91352.19;;;7.88;100.00
6395;BME280;3230;42.588;23.358;2023-05-12T07:42:17;91362.81;;;8.14;100.00
6395;BME280;3230;42.588;23.358;2023-05-12T07:44:42;91366.44;;;8.08;100.00
6395;BME280;3230;42.588;23.358;2023-05-12T07:47:08;91354.53;;;8.22;100.00
6395;BME280;3230;42.588;23.358;2023-05-12T07:49:33;91354.41;;;8.44;100.00
6395;BME280;3230;42.588;23.358;2023-05-12T07:51:58;91353.72;;;8.54;100.00
6395;BME280;3230;42.588;23.358;2023-05-12T07:54:24;91352.03;;;8.80;100.00
6395;BME280;3230;42.588;23.358;2023-05-12T07:56:49;91350.66;;;8.68;100.00
6395;BME280;3230;42.588;23.358;2023-05-12T07:59:15;91350.09;;;8.60;100.00
6395;BME280;3230;42.588;23.358;2023-05-12T08:01:41;91355.84;;;8.62;100.00
6395;BME280;3230;42.588;23.358;2023-05-12T08:04:07;91352.31;;;8.84;100.00
6395;BME280;3230;42.588;23.358;2023-05-12T08:06:33;91352.72;;;9.24;100.00
6395;BME280;3230;42.588;23.358;2023-05-12T08:08:58;91353.41;;;8.99;100.00
6395;BME280;3230;42.588;23.358;2023-05-12T08:11:24;91355.03;;;9.20;100.00
6395;BME280;3230;42.588;23.358;2023-05-12T08:13:50;91360.38;;;9.51;100.00
6395;BME280;3230;42.588;23.358;2023-05-12T08:16:15;91360.41;;;9.87;100.00
6395;BME280;3230;42.588;23.358;2023-05-12T08:18:41;91360.94;;;9.89;98.79
6395;BME280;3230;42.588;23.358;2023-05-12T08:21:06;91359.13;;;9.74;99.24
6395;BME280;3230;42.588;23.358;2023-05-12T08:23:33;91366.69;;;9.71;97.79
6395;BME280;3230;42.588;23.358;2023-05-12T08:25:58;91365.38;;;9.68;99.41
6395;BME280;3230;42.588;23.358;2023-05-12T08:28:23;91371.66;;;9.83;97.03
6395;BME280;3230;42.588;23.358;2023-05-12T08:30:49;91369.47;;;9.33;99.04
6395;BME280;3230;42.588;23.358;2023-05-12T08:33:15;91371.13;;;9.55;99.37
6395;BME280;3230;42.588;23.358;2023-05-12T08:35:40;91363.00;;;9.62;100.00
6395;BME280;3230;42.588;23.358;2023-05-12T08:38:06;91371.94;;;9.71;97.83
6395;BME280;3230;42.588;23.358;2023-05-12T08:40:38;91370.59;;;9.58;99.32
6395;BME280;3230;42.588;23.358;2023-05-12T08:43:12;91368.78;;;9.64;98.58
6395;BME280;3230;42.588;23.358;2023-05-12T08:45:43;91376.31;;;9.50;97.93
6395;BME280;3230;42.588;23.358;2023-05-12T08:48:09;91364.59;;;9.68;100.00
6395;BME280;3230;42.588;23.358;2023-05-12T08:50:37;91365.66;;;9.87;97.76
6395;BME280;3230;42.588;23.358;2023-05-12T08:53:03;91366.97;;;10.11;99.26
6395;BME280;3230;42.588;23.358;2023-05-12T08:55:29;91369.63;;;10.47;95.21
6395;BME280;3230;42.588;23.358;2023-05-12T08:57:57;91379.81;;;10.28;98.03
6395;BME280;3230;42.588;23.358;2023-05-12T09:00:22;91383.47;;;10.27;95.58
6395;BME280;3230;42.588;23.358;2023-05-12T09:02:50;91377.75;;;10.45;96.52
6395;BME280;3230;42.588;23.358;2023-05-12T09:05:17;91377.72;;;10.30;94.79
6395;BME280;3230;42.588;23.358;2023-05-12T09:07:43;91368.81;;;10.36;96.11
6395;BME280;3230;42.588;23.358;2023-05-12T09:10:15;91365.16;;;10.47;96.65
6395;BME280;3230;42.588;23.358;2023-05-12T09:12:44;91366.72;;;10.59;95.68
6395;BME280;3230;42.588;23.358;2023-05-12T09:15:17;91369.59;;;10.67;95.83
6395;BME280;3230;42.588;23.358;2023-05-12T09:17:43;91367.19;;;10.81;93.51
6395;BME280;3230;42.588;23.358;2023-05-12T09:20:09;91364.06;;;10.74;93.30
6395;BME280;3230;42.588;23.358;2023-05-12T09:22:35;91366.97;;;10.31;94.09
6395;BME280;3230;42.588;23.358;2023-05-12T09:25:16;91367.25;;;10.45;93.93
6395;BME280;3230;42.588;23.358;2023-05-12T09:27:45;91368.28;;;10.54;94.09
6395;BME280;3230;42.588;23.358;2023-05-12T09:30:11;91368.31;;;10.44;93.97
6395;BME280;3230;42.588;23.358;2023-05-12T09:32:36;91364.03;;;10.90;91.92
6395;BME280;3230;42.588;23.358;2023-05-12T09:35:03;91368.75;;;10.82;92.67
6395;BME280;3230;42.588;23.358;2023-05-12T09:37:31;91367.16;;;10.97;90.45
6395;BME280;3230;42.588;23.358;2023-05-12T09:40:03;91372.38;;;10.97;91.26
6395;BME280;3230;42.588;23.358;2023-05-12T09:42:31;91371.81;;;11.10;92.33
6395;BME280;3230;42.588;23.358;2023-05-12T09:45:06;91374.47;;;11.05;91.92
6395;BME280;3230;42.588;23.358;2023-05-12T09:47:35;91379.13;;;11.24;91.89
6395;BME280;3230;42.588;23.358;2023-05-12T09:50:03;91385.88;;;11.40;90.62
6395;BME280;3230;42.588;23.358;2023-05-12T09:52:30;91377.53;;;11.23;89.14
6395;BME280;3230;42.588;23.358;2023-05-12T09:55:09;91371.47;;;11.82;91.22
6395;BME280;3230;42.588;23.358;2023-05-12T09:57:38;91382.47;;;11.90;88.61
6395;BME280;3230;42.588;23.358;2023-05-12T10:00:06;91382.19;;;11.96;88.81
6395;BME280;3230;42.588;23.358;2023-05-12T10:02:33;91387.13;;;12.08;87.69
6395;BME280;3230;42.588;23.358;2023-05-12T10:05:01;91384.09;;;12.25;85.89
6395;BME280;3230;42.588;23.358;2023-05-12T10:07:31;91374.31;;;12.36;86.90
6395;BME280;3230;42.588;23.358;2023-05-12T10:10:00;91377.19;;;12.64;84.72
6395;BME280;3230;42.588;23.358;2023-05-12T10:12:27;91383.63;;;13.06;84.44
6395;BME280;3230;42.588;23.358;2023-05-12T10:14:52;91382.06;;;13.05;83.53
6395;BME280;3230;42.588;23.358;2023-05-12T10:17:19;91379.19;;;13.02;83.72
6395;BME280;3230;42.588;23.358;2023-05-12T10:19:46;91377.22;;;13.18;83.91
6395;BME280;3230;42.588;23.358;2023-05-12T10:22:14;91378.81;;;13.14;85.71
6395;BME280;3230;42.588;23.358;2023-05-12T10:24:40;91384.47;;;13.26;85.13
6395;BME280;3230;42.588;23.358;2023-05-12T10:27:06;91387.06;;;12.77;84.56
6395;BME280;3230;42.588;23.358;2023-05-12T10:29:32;91380.44;;;13.09;83.47
6395;BME280;3230;42.588;23.358;2023-05-12T10:31:58;91378.28;;;13.17;84.88
6395;BME280;3230;42.588;23.358;2023-05-12T10:34:34;91373.03;;;13.36;83.38
6395;BME280;3230;42.588;23.358;2023-05-12T10:37:03;91376.13;;;13.86;82.41
6395;BME280;3230;42.588;23.358;2023-05-12T10:39:32;91377.56;;;13.79;80.55
6395;BME280;3230;42.588;23.358;2023-05-12T10:42:06;91388.50;;;13.86;79.77
6395;BME280;3230;42.588;23.358;2023-05-12T10:44:33;91372.81;;;13.32;82.23
6395;BME280;3230;42.588;23.358;2023-05-12T10:46:59;91367.75;;;13.60;81.61
6395;BME280;3230;42.588;23.358;2023-05-12T10:49:33;91367.94;;;13.88;82.19
6395;BME280;3230;42.588;23.358;2023-05-12T10:52:00;91362.22;;;13.81;78.06
6395;BME280;3230;42.588;23.358;2023-05-12T10:54:26;91367.59;;;13.95;80.41
6395;BME280;3230;42.588;23.358;2023-05-12T10:56:53;91363.00;;;14.00;80.45
6395;BME280;3230;42.588;23.358;2023-05-12T10:59:25;91364.28;;;13.65;79.80
6395;BME280;3230;42.588;23.358;2023-05-12T11:02:11;91368.56;;;13.36;81.40
6395;BME280;3230;42.588;23.358;2023-05-12T11:04:55;91370.41;;;13.79;79.04
6395;BME280;3230;42.588;23.358;2023-05-12T11:07:23;91372.28;;;13.98;78.65
6395;BME280;3230;42.588;23.358;2023-05-12T11:09:54;91370.00;;;13.91;79.04
6395;BME280;3230;42.588;23.358;2023-05-12T11:12:19;91368.50;;;13.66;79.92
6395;BME280;3230;42.588;23.358;2023-05-12T11:14:46;91379.59;;;13.82;80.63
6395;BME280;3230;42.588;23.358;2023-05-12T11:17:12;91368.69;;;14.07;79.29
6395;BME280;3230;42.588;23.358;2023-05-12T11:19:38;91381.53;;;14.14;79.10
6395;BME280;3230;42.588;23.358;2023-05-12T11:24:29;91379.19;;;13.94;78.63
6395;BME280;3230;42.588;23.358;2023-05-12T11:26:55;91386.00;;;14.14;76.96
6395;BME280;3230;42.588;23.358;2023-05-12T11:29:21;91385.56;;;13.68;80.26
6395;BME280;3230;42.588;23.358;2023-05-12T11:31:49;91389.28;;;13.67;79.04
6395;BME280;3230;42.588;23.358;2023-05-12T11:34:15;91384.06;;;13.62;80.02
6395;BME280;3230;42.588;23.358;2023-05-12T11:36:44;91380.44;;;13.58;80.89
6395;BME280;3230;42.588;23.358;2023-05-12T11:39:21;91388.66;;;13.75;80.65
6395;BME280;3230;42.588;23.358;2023-05-12T11:41:48;91388.31;;;13.82;79.45
6395;BME280;3230;42.588;23.358;2023-05-12T11:44:24;91380.16;;;13.35;81.88
6395;BME280;3230;42.588;23.358;2023-05-12T11:47:13;91377.44;;;13.21;80.13
6395;BME280;3230;42.588;23.358;2023-05-12T11:49:53;91380.25;;;12.76;81.05
6395;BME280;3230;42.588;23.358;2023-05-12T11:52:21;91384.00;;;12.70;83.72
6395;BME280;3230;42.588;23.358;2023-05-12T11:54:49;91380.44;;;12.56;83.44
6395;BME280;3230;42.588;23.358;2023-05-12T11:57:28;91382.84;;;12.52;84.42
6395;BME280;3230;42.588;23.358;2023-05-12T11:59:58;91375.47;;;12.78;84.56
6395;BME280;3230;42.588;23.358;2023-05-12T12:02:24;91381.13;;;12.96;82.86
6395;BME280;3230;42.588;23.358;2023-05-12T12:04:50;91387.72;;;12.93;81.82
6395;BME280;3230;42.588;23.358;2023-05-12T12:07:27;91382.88;;;12.76;85.14
6395;BME280;3230;42.588;23.358;2023-05-12T12:09:53;91387.97;;;12.92;82.40
6395;BME280;3230;42.588;23.358;2023-05-12T12:12:18;91389.91;;;12.86;80.52
6395;BME280;3230;42.588;23.358;2023-05-12T12:14:44;91392.09;;;12.44;82.89
6395;BME280;3230;42.588;23.358;2023-05-12T12:17:09;91394.19;;;12.47;81.63
6395;BME280;3230;42.588;23.358;2023-05-12T12:19:35;91397.97;;;12.31;80.86
6395;BME280;3230;42.588;23.358;2023-05-12T12:22:00;91388.66;;;12.14;83.68
6395;BME280;3230;42.588;23.358;2023-05-12T12:24:25;91392.19;;;12.34;83.22
6395;BME280;3230;42.588;23.358;2023-05-12T12:26:51;91391.38;;;12.34;82.94
6395;BME280;3230;42.588;23.358;2023-05-12T12:29:17;91382.97;;;11.97;82.29
6395;BME280;3230;42.588;23.358;2023-05-12T12:31:42;91379.84;;;11.90;84.90
6395;BME280;3230;42.588;23.358;2023-05-12T12:34:08;91389.28;;;11.91;84.57
6395;BME280;3230;42.588;23.358;2023-05-12T12:36:34;91375.72;;;11.78;84.18
6395;BME280;3230;42.588;23.358;2023-05-12T12:39:00;91378.00;;;11.90;86.68
6395;BME280;3230;42.588;23.358;2023-05-12T12:41:27;91383.25;;;11.90;83.35
6395;BME280;3230;42.588;23.358;2023-05-12T12:43:52;91385.09;;;11.90;84.09
6395;BME280;3230;42.588;23.358;2023-05-12T12:46:18;91385.03;;;12.05;85.08
6395;BME280;3230;42.588;23.358;2023-05-12T12:48:44;91381.63;;;11.99;83.74
6395;BME280;3230;42.588;23.358;2023-05-12T12:51:09;91389.25;;;12.01;81.81
6395;BME280;3230;42.588;23.358;2023-05-12T12:53:35;91380.72;;;12.20;81.08
6395;BME280;3230;42.588;23.358;2023-05-12T12:56:02;91385.53;;;12.42;80.87
6395;BME280;3230;42.588;23.358;2023-05-12T12:58:28;91386.28;;;12.13;80.70
6395;BME280;3230;42.588;23.358;2023-05-12T13:00:53;91380.06;;;12.04;81.10
6395;BME280;3230;42.588;23.358;2023-05-12T13:03:19;91380.91;;;12.28;79.82
6395;BME280;3230;42.588;23.358;2023-05-12T13:05:44;91383.09;;;12.51;78.51
6395;BME280;3230;42.588;23.358;2023-05-12T13:08:09;91374.66;;;12.54;79.90
6395;BME280;3230;42.588;23.358;2023-05-12T13:10:35;91375.06;;;12.66;78.67
6395;BME280;3230;42.588;23.358;2023-05-12T13:13:01;91381.25;;;12.80;74.55